Time;durP1;ratioP1;P1;durP2;ratioP2;P2;SDS_P1;SDS_P2;PMS_P1;PMS_P2;Temp;Humidity;BMP_temperature;BMP_pressure;BME280_temperature;BME280_humidity;BME280_pressure;Samples;Min_cycle;Max_cycle;Signal;HPM_P1;HPM_P2
2023/10/08 00:00:39;;;;;;;20.08;6.47;;;;;;;;;;5098712;28;20023;-76
2023/10/08 00:02:45;;;;;;;26.85;6.68;;;;;;;;;;5091823;28;20035;-76
2023/10/08 00:05:16;;;;;;;27.70;7.10;;;;;;;;;;5096635;28;20023;-75
2023/10/08 00:07:42;;;;;;;22.92;6.80;;;;;;;;;;5095548;28;20471;-75
2023/10/08 00:10:08;;;;;;;24.20;7.35;;;;;;;;;;5095993;28;20024;-75
2023/10/08 00:12:34;;;;;;;18.92;6.00;;;;;;;;;;5095479;28;20542;-74
2023/10/08 00:15:00;;;;;;;22.15;7.07;;;;;;;;;;5095100;28;20020;-74
2023/10/08 00:17:26;;;;;;;24.45;6.95;;;;;;;;;;5095130;28;20032;-74
2023/10/08 00:19:52;;;;;;;28.77;5.93;;;;;;;;;;5095135;28;20158;-74
2023/10/08 00:22:19;;;;;;;27.35;6.57;;;;;;;;;;5094992;28;20027;-75
2023/10/08 00:24:46;;;;;;;20.67;5.95;;;;;;;;;;5095211;28;20103;-74
2023/10/08 00:27:17;;;;;;;22.48;6.07;;;;;;;;;;5094865;28;20020;-74
2023/10/08 00:29:43;;;;;;;23.42;4.93;;;;;;;;;;5096025;28;20043;-75
2023/10/08 00:32:12;;;;;;;23.63;5.35;;;;;;;;;;5095732;28;20055;-76
2023/10/08 00:34:42;;;;;;;25.25;4.80;;;;;;;;;;5095970;28;20031;-75
2023/10/08 00:37:09;;;;;;;23.45;5.13;;;;;;;;;;5095809;28;20044;-75
2023/10/08 00:39:37;;;;;;;31.27;5.13;;;;;;;;;;5095637;28;20433;-75
2023/10/08 00:42:07;;;;;;;18.20;4.10;;;;;;;;;;5094074;28;20024;-75
2023/10/08 00:44:55;;;;;;;21.20;4.47;;;;;;;;;;5095534;28;20024;-74
2023/10/08 00:47:26;;;;;;;26.13;4.45;;;;;;;;;;5094854;28;20101;-75
2023/10/08 00:50:03;;;;;;;15.48;4.05;;;;;;;;;;5096665;28;20031;-76
2023/10/08 00:52:30;;;;;;;21.83;4.57;;;;;;;;;;5096287;28;20028;-75
2023/10/08 00:55:08;;;;;;;18.50;4.10;;;;;;;;;;5096530;28;20016;-75
2023/10/08 00:57:36;;;;;;;18.52;3.90;;;;;;;;;;5098391;28;20020;-75
2023/10/08 01:00:03;;;;;;;17.83;3.45;;;;;;;;;;5097939;28;20387;-73
2023/10/08 01:02:45;;;;;;;26.33;4.15;;;;;;;;;;5094157;28;20016;-73
2023/10/08 01:05:12;;;;;;;15.93;3.50;;;;;;;;;;5094067;28;20053;-74
2023/10/08 01:07:42;;;;;;;25.20;4.00;;;;;;;;;;5093708;28;20016;-74
2023/10/08 01:10:10;;;;;;;21.50;3.97;;;;;;;;;;5094075;28;20096;-74
2023/10/08 01:12:49;;;;;;;18.55;3.60;;;;;;;;;;5093988;28;20418;-74
2023/10/08 01:15:28;;;;;;;17.20;3.50;;;;;;;;;;5093878;28;20016;-74
2023/10/08 01:17:59;;;;;;;14.13;3.28;;;;;;;;;;5093986;28;20065;-74
2023/10/08 01:20:43;;;;;;;20.02;3.67;;;;;;;;;;5093933;28;20418;-75
2023/10/08 01:23:10;;;;;;;20.92;4.15;;;;;;;;;;5093495;28;20402;-74
2023/10/08 01:25:39;;;;;;;17.70;3.38;;;;;;;;;;5094409;28;20030;-75
2023/10/08 01:28:14;;;;;;;17.15;3.42;;;;;;;;;;5094476;28;20027;-74
2023/10/08 01:30:47;;;;;;;;;;;;;;;;;;5093531;28;20119;-74
2023/10/08 01:33:20;;;;;;;14.70;3.42;;;;;;;;;;5093578;28;19912;-76
2023/10/08 01:35:48;;;;;;;18.20;3.87;;;;;;;;;;5093830;28;20020;-76
2023/10/08 01:38:16;;;;;;;19.05;3.78;;;;;;;;;;5094387;28;20379;-75
2023/10/08 01:40:42;;;;;;;15.35;3.45;;;;;;;;;;5094222;28;20535;-75
2023/10/08 01:43:10;;;;;;;19.70;3.83;;;;;;;;;;5093671;28;20375;-74
2023/10/08 01:45:39;;;;;;;17.58;3.40;;;;;;;;;;5093361;28;20016;-74
2023/10/08 01:48:05;;;;;;;19.45;3.88;;;;;;;;;;5092138;28;20069;-73
2023/10/08 01:50:34;;;;;;;15.80;3.42;;;;;;;;;;5093972;28;20019;-75
2023/10/08 01:53:00;;;;;;;13.10;2.63;;;;;;;;;;5093664;28;20065;-75
2023/10/08 01:55:26;;;;;;;17.10;3.28;;;;;;;;;;5075795;28;20029;-75
2023/10/08 01:57:52;;;;;;;16.02;3.35;;;;;;;;;;5093274;28;20036;-75
2023/10/08 02:00:19;;;;;;;19.15;3.45;;;;;;;;;;5074844;28;20031;-76
2023/10/08 02:02:50;;;;;;;17.30;3.45;;;;;;;;;;5093821;28;20016;-75
2023/10/08 02:05:18;;;;;;;19.38;3.40;;;;;;;;;;5093609;28;20058;-75
2023/10/08 02:07:45;;;;;;;17.10;3.63;;;;;;;;;;5093547;28;20440;-75
2023/10/08 02:10:11;;;;;;;14.38;3.55;;;;;;;;;;5093373;28;20039;-73
2023/10/08 02:12:40;;;;;;;13.98;3.22;;;;;;;;;;5092868;28;20585;-74
2023/10/08 02:15:07;;;;;;;17.50;3.63;;;;;;;;;;5092953;28;20107;-74
2023/10/08 02:17:33;;;;;;;15.73;3.28;;;;;;;;;;5092883;28;20434;-74
2023/10/08 02:19:59;;;;;;;17.25;3.10;;;;;;;;;;5092692;28;20035;-74
2023/10/08 02:22:25;;;;;;;11.65;2.60;;;;;;;;;;5093017;28;20028;-73
2023/10/08 02:24:53;;;;;;;18.27;2.70;;;;;;;;;;5092582;28;20407;-74
2023/10/08 02:27:19;;;;;;;13.23;3.10;;;;;;;;;;5092465;28;20126;-74
2023/10/08 02:29:45;;;;;;;14.90;2.67;;;;;;;;;;5092538;28;20085;-74
2023/10/08 02:32:11;;;;;;;13.40;2.80;;;;;;;;;;5092415;28;20036;-75
2023/10/08 02:34:37;;;;;;;11.18;2.97;;;;;;;;;;5092086;28;20100;-75
2023/10/08 02:37:03;;;;;;;14.30;2.90;;;;;;;;;;5092427;28;20027;-75
2023/10/08 02:39:32;;;;;;;16.92;2.90;;;;;;;;;;5091951;28;20491;-74
2023/10/08 02:41:59;;;;;;;17.20;3.08;;;;;;;;;;5086045;28;20028;-75
2023/10/08 02:44:27;;;;;;;17.52;3.45;;;;;;;;;;5105830;28;20038;-74
2023/10/08 02:46:54;;;;;;;15.38;3.30;;;;;;;;;;5103824;28;20024;-74
2023/10/08 02:49:22;;;;;;;11.35;2.75;;;;;;;;;;5103186;28;20048;-75
2023/10/08 02:51:50;;;;;;;16.27;2.88;;;;;;;;;;5102147;28;20012;-75
2023/10/08 02:54:18;;;;;;;15.00;2.90;;;;;;;;;;5098830;28;20095;-76
2023/10/08 02:56:51;;;;;;;15.38;3.65;;;;;;;;;;5102629;28;20031;-74
2023/10/08 02:59:21;;;;;;;11.27;2.97;;;;;;;;;;5092159;28;20032;-74
2023/10/08 03:01:49;;;;;;;14.07;3.00;;;;;;;;;;5114286;28;20020;-74
2023/10/08 03:04:18;;;;;;;12.82;2.70;;;;;;;;;;5112562;28;20028;-73
2023/10/08 03:06:50;;;;;;;14.70;3.25;;;;;;;;;;5112651;28;20024;-75
2023/10/08 03:09:25;;;;;;;16.83;2.35;;;;;;;;;;5105788;28;20494;-75
2023/10/08 03:11:52;;;;;;;;;;;;;;;;;;5093266;28;20020;-76
2023/10/08 03:14:22;;;;;;;11.77;3.00;;;;;;;;;;5093809;28;19904;-75
2023/10/08 03:17:07;;;;;;;12.35;2.42;;;;;;;;;;5096048;28;20039;-75
2023/10/08 03:19:35;;;;;;;11.45;2.33;;;;;;;;;;5099888;28;20020;-77
2023/10/08 03:22:04;;;;;;;8.73;2.00;;;;;;;;;;5093201;28;20260;-76
2023/10/08 03:24:37;;;;;;;11.65;2.50;;;;;;;;;;5092519;28;20024;-76
2023/10/08 03:27:07;;;;;;;16.75;2.72;;;;;;;;;;5094554;28;20023;-74
2023/10/08 03:29:40;;;;;;;14.68;2.50;;;;;;;;;;5092889;28;20078;-75
2023/10/08 03:32:06;;;;;;;8.88;2.22;;;;;;;;;;5092431;28;20394;-74
2023/10/08 03:34:34;;;;;;;9.98;2.40;;;;;;;;;;5073812;28;20020;-75
2023/10/08 03:37:05;;;;;;;12.00;2.35;;;;;;;;;;5084264;28;20027;-77
2023/10/08 03:42:22;;;;;;;10.65;2.65;;;;;;;;;;5098221;28;20151;-77
2023/10/08 03:44:51;;;;;;;9.40;2.03;;;;;;;;;;5079998;28;20024;-77
2023/10/08 03:47:18;;;;;;;11.48;1.90;;;;;;;;;;5094756;28;20055;-77
2023/10/08 03:49:45;;;;;;;9.85;2.03;;;;;;;;;;5094229;28;20038;-77
2023/10/08 03:52:12;;;;;;;15.20;3.20;;;;;;;;;;5088924;28;20035;-77
2023/10/08 03:54:47;;;;;;;7.10;2.22;;;;;;;;;;5098819;28;20031;-76
2023/10/08 03:57:18;;;;;;;21.42;3.38;;;;;;;;;;5093675;28;20016;-77
2023/10/08 03:59:48;;;;;;;10.35;2.65;;;;;;;;;;5098991;28;20039;-78
2023/10/08 04:02:16;;;;;;;8.15;2.97;;;;;;;;;;5104542;28;20035;-74
2023/10/08 04:04:49;;;;;;;11.13;2.20;;;;;;;;;;5112032;28;20015;-75
2023/10/08 04:07:38;;;;;;;12.02;2.17;;;;;;;;;;5111598;28;20426;-74
2023/10/08 04:12:43;;;;;;;9.13;2.40;;;;;;;;;;5111752;28;20546;-74
2023/10/08 04:15:12;;;;;;;13.63;2.20;;;;;;;;;;5111873;28;20016;-76
2023/10/08 04:17:44;;;;;;;17.23;2.33;;;;;;;;;;5111991;28;20031;-76
2023/10/08 04:20:32;;;;;;;8.95;2.10;;;;;;;;;;5112361;28;20032;-75
2023/10/08 04:23:02;;;;;;;11.50;2.60;;;;;;;;;;5115056;28;20023;-74
2023/10/08 04:25:28;;;;;;;8.68;2.10;;;;;;;;;;5098026;28;20026;-74
2023/10/08 04:27:58;;;;;;;11.65;2.60;;;;;;;;;;5116135;28;20053;-75
2023/10/08 04:30:28;;;;;;;8.00;2.05;;;;;;;;;;5116249;28;20020;-75
2023/10/08 04:32:54;;;;;;;11.18;2.45;;;;;;;;;;5116120;28;20514;-75
2023/10/08 04:35:25;;;;;;;5.97;2.47;;;;;;;;;;5099345;28;20193;-75
2023/10/08 04:37:52;;;;;;;13.95;2.63;;;;;;;;;;5116093;28;20073;-74
2023/10/08 04:40:22;;;;;;;10.50;2.13;;;;;;;;;;5116898;28;20431;-74
2023/10/08 04:42:48;;;;;;;8.55;2.58;;;;;;;;;;5120764;28;20020;-74
2023/10/08 04:45:14;;;;;;;7.93;2.10;;;;;;;;;;5119941;28;20034;-74
2023/10/08 04:47:42;;;;;;;5.63;1.90;;;;;;;;;;5124614;28;20027;-74
2023/10/08 04:50:17;;;;;;;11.25;2.15;;;;;;;;;;5102957;28;20037;-74
2023/10/08 04:52:58;;;;;;;12.75;2.22;;;;;;;;;;5133758;28;20019;-74
2023/10/08 04:55:28;;;;;;;10.48;2.15;;;;;;;;;;5115884;28;20095;-74
2023/10/08 04:57:55;;;;;;;12.75;2.38;;;;;;;;;;5115641;28;20030;-74
2023/10/08 05:00:41;;;;;;;7.60;2.20;;;;;;;;;;5115448;28;20027;-75
2023/10/08 05:03:14;;;;;;;10.48;2.60;;;;;;;;;;5115283;28;20032;-74
2023/10/08 05:06:07;;;;;;;15.95;2.35;;;;;;;;;;5089797;28;20036;-76
2023/10/08 05:08:47;;;;;;;9.48;2.08;;;;;;;;;;5100614;28;20490;-76
2023/10/08 05:11:36;;;;;;;11.38;1.95;;;;;;;;;;5078997;28;20364;-76
2023/10/08 05:14:06;;;;;;;10.93;2.55;;;;;;;;;;5087286;28;20024;-76
2023/10/08 05:16:43;;;;;;;11.25;2.20;;;;;;;;;;5089370;28;20071;-78
2023/10/08 05:22:05;;;;;;;8.88;2.00;;;;;;;;;;5093978;28;20460;-77
2023/10/08 05:24:38;;;;;;;9.68;2.17;;;;;;;;;;5090532;28;20016;-77
2023/10/08 05:27:37;;;;;;;15.80;2.58;;;;;;;;;;5093012;28;20048;-76
2023/10/08 05:30:25;;;;;;;13.25;2.50;;;;;;;;;;5097029;28;20020;-74
2023/10/08 05:43:48;;;;;;;5.75;2.30;;;;;;;;;;5092973;28;20024;-75
2023/10/08 06:13:05;;;;;;;13.88;2.67;;;;;;;;;;5096318;28;20066;-75
2023/10/08 06:15:48;;;;;;;7.70;2.58;;;;;;;;;;5096506;28;20482;-74
2023/10/08 06:18:34;;;;;;;6.90;2.03;;;;;;;;;;5091935;28;20028;-73
2023/10/08 06:21:08;;;;;;;9.38;2.10;;;;;;;;;;5093086;28;20024;-74
2023/10/08 06:23:35;;;;;;;8.20;2.60;;;;;;;;;;5092773;28;20020;-74
2023/10/08 06:28:41;;;;;;;13.75;2.50;;;;;;;;;;5096187;28;20017;-76
2023/10/08 06:31:11;;;;;;;11.13;3.38;;;;;;;;;;5116742;28;20028;-78
2023/10/08 06:33:37;;;;;;;11.20;3.40;;;;;;;;;;5111566;28;20044;-74
2023/10/08 06:38:38;;;;;;;10.82;2.50;;;;;;;;;;5101129;28;20061;-73
2023/10/08 06:41:17;;;;;;;8.57;2.40;;;;;;;;;;5097384;28;20091;-74
2023/10/08 06:43:48;;;;;;;11.43;3.95;;;;;;;;;;5098511;28;20017;-74
2023/10/08 06:46:14;;;;;;;12.95;2.53;;;;;;;;;;5096934;28;20024;-74
2023/10/08 06:48:44;;;;;;;8.50;2.40;;;;;;;;;;5097605;28;20020;-74
2023/10/08 06:51:13;;;;;;;8.10;2.25;;;;;;;;;;5098084;28;20019;-74
2023/10/08 06:53:39;;;;;;;8.30;2.00;;;;;;;;;;5096778;28;20031;-73
2023/10/08 06:56:05;;;;;;;10.63;1.75;;;;;;;;;;5092111;28;20099;-74
2023/10/08 06:58:32;;;;;;;10.70;2.30;;;;;;;;;;5097391;28;20047;-77
2023/10/08 07:00:58;;;;;;;10.70;2.38;;;;;;;;;;5095966;28;20020;-74
2023/10/08 07:03:25;;;;;;;12.00;3.38;;;;;;;;;;5096602;28;20066;-75
2023/10/08 07:05:57;;;;;;;10.52;3.42;;;;;;;;;;5096476;28;20024;-73
2023/10/08 07:08:24;;;;;;;16.20;3.60;;;;;;;;;;5093570;28;20080;-75
2023/10/08 07:10:56;;;;;;;8.93;2.35;;;;;;;;;;5091501;28;20095;-75
2023/10/08 07:13:22;;;;;;;14.05;2.22;;;;;;;;;;5090110;28;20495;-73
2023/10/08 07:15:50;;;;;;;8.52;1.90;;;;;;;;;;5090872;28;20021;-73
2023/10/08 07:18:24;;;;;;;15.90;3.80;;;;;;;;;;5092030;28;20044;-75
2023/10/08 07:20:53;;;;;;;13.90;3.15;;;;;;;;;;5091026;28;20453;-75
2023/10/08 07:23:20;;;;;;;10.93;3.75;;;;;;;;;;5091195;28;20023;-75
2023/10/08 07:25:51;;;;;;;10.30;2.67;;;;;;;;;;5091972;28;20022;-75
2023/10/08 07:28:19;;;;;;;9.85;2.20;;;;;;;;;;5090823;28;20039;-75
2023/10/08 07:30:45;;;;;;;9.68;3.03;;;;;;;;;;5089401;28;20036;-74
2023/10/08 07:33:17;;;;;;;11.43;2.53;;;;;;;;;;5090678;28;20032;-74
2023/10/08 07:36:11;;;;;;;13.32;2.70;;;;;;;;;;5091569;28;20103;-76
2023/10/08 07:38:37;;;;;;;11.60;2.55;;;;;;;;;;5090948;28;20099;-76
2023/10/08 07:41:05;;;;;;;10.27;2.60;;;;;;;;;;5091096;28;20437;-77
2023/10/08 07:43:32;;;;;;;11.48;2.60;;;;;;;;;;5091652;28;20020;-79
2023/10/08 07:45:58;;;;;;;13.07;3.20;;;;;;;;;;5090889;28;20021;-74
2023/10/08 07:48:29;;;;;;;11.13;2.50;;;;;;;;;;5090612;28;20012;-74
2023/10/08 07:50:56;;;;;;;9.50;1.85;;;;;;;;;;5090865;28;20020;-75
2023/10/08 07:53:24;;;;;;;6.40;1.98;;;;;;;;;;5090786;28;20020;-75
2023/10/08 07:55:51;;;;;;;8.02;1.73;;;;;;;;;;5091499;28;20103;-74
2023/10/08 07:58:17;;;;;;;12.48;2.42;;;;;;;;;;5095556;28;20024;-73
2023/10/08 08:00:51;;;;;;;11.73;2.00;;;;;;;;;;5095530;28;20027;-74
2023/10/08 08:03:21;;;;;;;13.65;1.90;;;;;;;;;;5095672;28;20554;-74
2023/10/08 08:05:48;;;;;;;12.43;2.55;;;;;;;;;;5096227;28;20444;-74
2023/10/08 08:08:17;;;;;;;11.73;2.45;;;;;;;;;;5096565;28;20028;-75
2023/10/08 08:10:44;;;;;;;9.02;2.42;;;;;;;;;;5095815;28;20012;-73
2023/10/08 08:13:10;;;;;;;11.45;2.00;;;;;;;;;;5094855;28;20099;-72
2023/10/08 08:15:41;;;;;;;8.07;2.10;;;;;;;;;;5094050;28;20095;-73
2023/10/08 08:18:08;;;;;;;11.80;2.10;;;;;;;;;;5094360;28;20054;-74
2023/10/08 08:20:43;;;;;;;10.77;2.10;;;;;;;;;;5093669;28;20514;-74
2023/10/08 08:23:09;;;;;;;15.02;2.17;;;;;;;;;;5093608;28;20108;-75
2023/10/08 08:28:24;;;;;;;10.73;2.35;;;;;;;;;;5093736;28;20556;-75
2023/10/08 08:30:55;;;;;;;8.15;2.03;;;;;;;;;;5093727;28;20024;-76
2023/10/08 08:33:24;;;;;;;9.35;2.30;;;;;;;;;;5093706;28;20032;-74
2023/10/08 08:36:00;;;;;;;8.43;2.22;;;;;;;;;;5093918;28;20487;-75
2023/10/08 08:38:32;;;;;;;9.57;2.30;;;;;;;;;;5093858;28;20099;-75
2023/10/08 08:41:07;;;;;;;11.13;3.33;;;;;;;;;;5093533;28;20032;-74
2023/10/08 08:43:36;;;;;;;7.68;2.05;;;;;;;;;;5093668;28;20047;-76
2023/10/08 08:46:06;;;;;;;14.00;2.40;;;;;;;;;;5093932;28;20055;-74
2023/10/08 08:48:34;;;;;;;12.23;2.17;;;;;;;;;;5093919;28;20027;-76
2023/10/08 08:51:01;;;;;;;14.30;1.88;;;;;;;;;;5094299;28;20020;-76
2023/10/08 08:53:27;;;;;;;8.27;2.00;;;;;;;;;;5094988;28;20035;-78
2023/10/08 08:55:55;;;;;;;8.00;1.90;;;;;;;;;;5098051;28;20015;-78
2023/10/08 08:58:23;;;;;;;9.48;2.00;;;;;;;;;;5096247;28;20016;-78
2023/10/08 09:00:52;;;;;;;6.22;1.83;;;;;;;;;;5095925;28;20017;-79
2023/10/08 09:03:19;;;;;;;7.93;2.03;;;;;;;;;;5096403;28;20043;-78
2023/10/08 09:05:50;;;;;;;9.13;2.25;;;;;;;;;;5093927;28;20020;-77
2023/10/08 09:08:18;;;;;;;11.77;3.88;;;;;;;;;;5093384;28;20051;-79
2023/10/08 09:10:53;;;;;;;7.15;2.90;;;;;;;;;;5097461;28;20115;-79
2023/10/08 09:13:24;;;;;;;11.52;1.98;;;;;;;;;;5099134;28;20070;-80
2023/10/08 09:15:51;;;;;;;8.43;2.25;;;;;;;;;;5095534;28;20020;-77
2023/10/08 09:18:17;;;;;;;7.95;2.15;;;;;;;;;;5093221;28;20035;-74
2023/10/08 09:20:44;;;;;;;5.90;1.65;;;;;;;;;;5093565;28;20034;-75
2023/10/08 09:23:13;;;;;;;6.63;1.80;;;;;;;;;;5093614;28;20031;-76
2023/10/08 09:25:44;;;;;;;9.82;1.63;;;;;;;;;;5093481;28;20541;-74
2023/10/08 09:28:12;;;;;;;9.80;2.03;;;;;;;;;;5075629;28;20114;-74
2023/10/08 09:30:39;;;;;;;8.55;2.42;;;;;;;;;;5074709;28;20115;-76
2023/10/08 09:33:10;;;;;;;8.52;2.20;;;;;;;;;;5093646;28;20066;-75
2023/10/08 09:35:37;;;;;;;6.82;1.92;;;;;;;;;;5092811;28;20055;-76
2023/10/08 09:38:03;;;;;;;12.07;1.90;;;;;;;;;;5092994;28;20059;-77
2023/10/08 09:40:29;;;;;;;7.88;2.70;;;;;;;;;;5093855;28;20032;-75
2023/10/08 09:42:56;;;;;;;3.70;1.48;;;;;;;;;;5076285;28;20291;-75
2023/10/08 09:45:22;;;;;;;5.28;1.48;;;;;;;;;;5094202;28;20020;-75
2023/10/08 09:47:55;;;;;;;5.32;1.50;;;;;;;;;;5075176;28;20028;-75
2023/10/08 09:50:32;;;;;;;7.47;1.50;;;;;;;;;;5093607;28;20020;-74
2023/10/08 09:53:08;;;;;;;6.00;1.35;;;;;;;;;;5093484;28;20030;-75
2023/10/08 09:55:34;;;;;;;4.53;1.60;;;;;;;;;;5094439;28;20012;-75
2023/10/08 09:58:00;;;;;;;9.02;1.83;;;;;;;;;;5091950;28;20031;-74
2023/10/08 10:00:31;;;;;;;6.05;1.30;;;;;;;;;;5091918;28;20027;-74
2023/10/08 10:03:03;;;;;;;6.78;2.03;;;;;;;;;;5092153;28;20127;-74
2023/10/08 10:05:38;;;;;;;5.78;1.90;;;;;;;;;;5093532;28;20500;-74
2023/10/08 10:08:09;;;;;;;11.63;1.60;;;;;;;;;;5091603;28;20113;-74
2023/10/08 10:10:38;;;;;;;7.63;1.38;;;;;;;;;;5092088;28;20027;-76
2023/10/08 10:13:10;;;;;;;6.18;2.17;;;;;;;;;;5092036;28;20043;-75
2023/10/08 10:15:43;;;;;;;8.50;2.10;;;;;;;;;;5091893;28;20066;-74
2023/10/08 10:18:10;;;;;;;5.80;1.48;;;;;;;;;;5091724;28;20394;-75
2023/10/08 10:20:39;;;;;;;5.40;1.48;;;;;;;;;;5090633;28;20024;-75
2023/10/08 10:23:26;;;;;;;7.15;2.70;;;;;;;;;;5091734;28;20025;-74
2023/10/08 10:25:54;;;;;;;8.15;2.47;;;;;;;;;;5091585;28;20109;-75
2023/10/08 10:28:23;;;;;;;6.43;2.00;;;;;;;;;;5081948;28;20025;-75
2023/10/08 10:30:51;;;;;;;5.75;1.83;;;;;;;;;;5072186;28;20009;-74
2023/10/08 10:33:16;;;;;;;6.18;1.42;;;;;;;;;;5082351;28;20061;-73
2023/10/08 10:35:50;;;;;;;13.80;2.22;;;;;;;;;;5078055;28;20016;-75
2023/10/08 10:38:20;;;;;;;8.55;2.05;;;;;;;;;;5074913;28;20023;-74
2023/10/08 10:40:56;;;;;;;7.22;1.90;;;;;;;;;;5078302;28;20028;-74
2023/10/08 10:43:39;;;;;;;7.00;1.63;;;;;;;;;;5074194;28;20032;-74
2023/10/08 10:46:29;;;;;;;6.57;1.20;;;;;;;;;;5077761;28;20020;-75
2023/10/08 10:49:17;;;;;;;4.40;1.35;;;;;;;;;;5077389;28;20035;-75
2023/10/08 10:51:43;;;;;;;8.48;1.35;;;;;;;;;;5073380;28;20028;-74
2023/10/08 10:54:19;;;;;;;3.65;1.13;;;;;;;;;;5077790;28;20455;-75
2023/10/08 10:56:47;;;;;;;6.50;1.52;;;;;;;;;;5074101;28;20048;-75
2023/10/08 10:59:18;;;;;;;8.43;2.03;;;;;;;;;;5086940;28;20016;-77
2023/10/08 11:02:07;;;;;;;10.02;1.58;;;;;;;;;;5057591;28;20169;-76
2023/10/08 11:04:45;;;;;;;5.60;1.70;;;;;;;;;;5077343;28;20046;-75
2023/10/08 11:07:12;;;;;;;5.95;1.20;;;;;;;;;;5075801;28;20094;-75
2023/10/08 11:09:38;;;;;;;9.38;1.30;;;;;;;;;;5079576;28;20043;-76
2023/10/08 11:12:10;;;;;;;3.53;1.40;;;;;;;;;;5072394;28;20024;-77
2023/10/08 11:14:41;;;;;;;3.72;1.20;;;;;;;;;;5075045;28;20082;-76
2023/10/08 11:17:11;;;;;;;6.30;1.83;;;;;;;;;;5080270;28;20086;-75
2023/10/08 11:19:36;;;;;;;5.18;1.50;;;;;;;;;;5071144;28;20028;-75
2023/10/08 11:22:02;;;;;;;5.65;1.23;;;;;;;;;;5070951;28;20031;-76
2023/10/08 11:24:34;;;;;;;4.20;1.50;;;;;;;;;;5081540;28;20668;-75
2023/10/08 11:27:16;;;;;;;3.17;1.15;;;;;;;;;;5078265;28;20029;-76
2023/10/08 11:29:47;;;;;;;9.75;1.92;;;;;;;;;;5075110;28;20074;-77
2023/10/08 11:32:15;;;;;;;6.75;2.38;;;;;;;;;;5090986;28;20020;-79
2023/10/08 11:34:41;;;;;;;10.45;1.85;;;;;;;;;;5084600;28;20009;-77
2023/10/08 11:37:19;;;;;;;4.50;1.38;;;;;;;;;;5084252;28;20191;-75
2023/10/08 11:39:49;;;;;;;5.10;1.52;;;;;;;;;;5083229;28;20479;-75
2023/10/08 11:45:08;;;;;;;5.13;1.52;;;;;;;;;;5088807;28;20072;-76
2023/10/08 11:47:35;;;;;;;6.32;2.38;;;;;;;;;;5098399;28;20024;-75
2023/10/08 11:50:10;;;;;;;8.48;2.88;;;;;;;;;;5099164;28;20031;-75
2023/10/08 11:52:41;;;;;;;5.32;1.92;;;;;;;;;;5091003;28;20052;-76
2023/10/08 11:55:08;;;;;;;15.57;6.47;;;;;;;;;;5094182;28;20024;-76
2023/10/08 11:57:35;;;;;;;6.20;2.33;;;;;;;;;;5097520;28;20093;-76
2023/10/08 12:00:16;;;;;;;4.30;1.40;;;;;;;;;;5096970;28;20027;-76
2023/10/08 12:02:43;;;;;;;3.42;1.38;;;;;;;;;;5096995;28;20020;-76
2023/10/08 12:05:18;;;;;;;7.00;1.40;;;;;;;;;;5097622;28;20024;-76
2023/10/08 12:07:45;;;;;;;6.43;1.40;;;;;;;;;;5078463;28;20023;-76
2023/10/08 12:10:11;;;;;;;6.45;1.45;;;;;;;;;;5098436;28;20066;-76
2023/10/08 12:12:37;;;;;;;4.47;1.50;;;;;;;;;;5079728;28;20024;-76
2023/10/08 12:15:03;;;;;;;4.60;1.50;;;;;;;;;;5076775;28;20115;-76
2023/10/08 12:17:39;;;;;;;4.53;1.60;;;;;;;;;;5077969;28;20016;-76
2023/10/08 12:20:22;;;;;;;8.20;1.95;;;;;;;;;;5078010;28;20052;-76
2023/10/08 12:22:51;;;;;;;4.88;1.52;;;;;;;;;;5061127;28;20070;-75
2023/10/08 12:25:17;;;;;;;5.30;1.30;;;;;;;;;;5100628;28;20394;-77
2023/10/08 12:27:44;;;;;;;2.72;1.15;;;;;;;;;;5100231;28;20032;-76
2023/10/08 12:30:10;;;;;;;4.68;1.63;;;;;;;;;;5097344;28;20020;-75
2023/10/08 12:32:42;;;;;;;4.07;1.30;;;;;;;;;;5097421;28;20028;-77
2023/10/08 12:35:12;;;;;;;6.47;1.52;;;;;;;;;;5097788;28;20028;-77
2023/10/08 12:37:38;;;;;;;3.10;1.27;;;;;;;;;;5097699;28;20024;-76
2023/10/08 12:40:12;;;;;;;6.50;1.45;;;;;;;;;;5097478;28;20059;-76
2023/10/08 12:42:44;;;;;;;7.13;1.50;;;;;;;;;;5095784;28;20028;-77
2023/10/08 12:45:12;;;;;;;2.90;1.35;;;;;;;;;;5077109;28;20361;-76
2023/10/08 12:47:39;;;;;;;3.17;1.55;;;;;;;;;;5094296;28;20093;-76
2023/10/08 12:50:07;;;;;;;3.70;1.25;;;;;;;;;;5094268;28;20437;-77
2023/10/08 12:52:42;;;;;;;2.60;1.30;;;;;;;;;;5094321;28;20383;-76
2023/10/08 12:55:08;;;;;;;6.18;1.70;;;;;;;;;;5094443;28;20027;-77
2023/10/08 12:57:37;;;;;;;4.75;1.40;;;;;;;;;;5094389;28;20024;-74
2023/10/08 13:00:03;;;;;;;5.15;1.60;;;;;;;;;;5093921;28;20061;-76
2023/10/08 13:02:30;;;;;;;3.47;1.42;;;;;;;;;;5094699;28;20387;-76
2023/10/08 13:04:58;;;;;;;2.88;1.10;;;;;;;;;;5095988;28;20032;-75
2023/10/08 13:07:26;;;;;;;3.72;1.60;;;;;;;;;;5096078;28;20020;-76
2023/10/08 13:09:52;;;;;;;6.20;1.92;;;;;;;;;;5095906;28;20024;-75
2023/10/08 13:12:18;;;;;;;6.85;2.00;;;;;;;;;;5093977;28;20390;-76
2023/10/08 13:14:44;;;;;;;2.40;1.60;;;;;;;;;;5075935;28;20028;-76
2023/10/08 13:17:11;;;;;;;10.55;1.55;;;;;;;;;;5094561;28;20031;-76
2023/10/08 13:19:39;;;;;;;3.95;1.40;;;;;;;;;;5094068;28;20024;-75
2023/10/08 13:22:06;;;;;;;6.07;2.28;;;;;;;;;;5094007;28;20028;-74
2023/10/08 13:24:35;;;;;;;8.82;2.30;;;;;;;;;;5093678;28;20085;-74
2023/10/08 13:27:01;;;;;;;6.45;2.55;;;;;;;;;;5093769;28;20016;-74
2023/10/08 13:29:32;;;;;;;5.35;2.65;;;;;;;;;;5094309;28;20084;-75
2023/10/08 13:31:58;;;;;;;6.82;1.83;;;;;;;;;;5094096;28;20032;-74
2023/10/08 13:34:26;;;;;;;3.75;1.92;;;;;;;;;;5091813;28;20024;-79
2023/10/08 13:36:54;;;;;;;6.15;1.88;;;;;;;;;;5093894;28;20495;-79
2023/10/08 13:39:21;;;;;;;6.95;1.70;;;;;;;;;;5093512;28;20077;-79
2023/10/08 13:41:52;;;;;;;5.10;1.63;;;;;;;;;;5100616;28;20020;-78
2023/10/08 13:44:26;;;;;;;7.28;1.58;;;;;;;;;;5113636;28;20581;-80
2023/10/08 13:46:57;;;;;;;4.90;2.10;;;;;;;;;;5096166;28;20388;-80
2023/10/08 13:49:23;;;;;;;6.65;2.03;;;;;;;;;;5096410;28;20036;-80
2023/10/08 13:51:55;;;;;;;5.10;1.58;;;;;;;;;;5096340;28;20097;-81
2023/10/08 13:54:22;;;;;;;9.77;2.63;;;;;;;;;;5097794;28;20023;-79
2023/10/08 13:56:48;;;;;;;10.10;2.30;;;;;;;;;;5097731;28;20103;-81
2023/10/08 13:59:15;;;;;;;6.18;2.55;;;;;;;;;;5097767;28;20028;-80
2023/10/08 14:01:51;;;;;;;8.98;3.40;;;;;;;;;;5097530;28;20475;-80
2023/10/08 14:04:19;;;;;;;11.38;3.50;;;;;;;;;;5076786;28;20111;-76
2023/10/08 14:06:52;;;;;;;9.25;2.03;;;;;;;;;;5093796;28;20031;-76
2023/10/08 14:09:27;;;;;;;4.65;1.85;;;;;;;;;;5093518;28;20020;-75
2023/10/08 14:11:56;;;;;;;12.73;2.65;;;;;;;;;;5093587;28;20020;-75
2023/10/08 14:14:29;;;;;;;6.18;2.10;;;;;;;;;;5095502;28;20468;-79
2023/10/08 14:16:59;;;;;;;7.10;2.13;;;;;;;;;;5097284;28;20479;-78
2023/10/08 14:19:35;;;;;;;7.15;2.28;;;;;;;;;;5096157;28;20145;-79
2023/10/08 14:22:03;;;;;;;4.78;2.05;;;;;;;;;;5093428;28;20024;-76
2023/10/08 14:24:32;;;;;;;9.07;3.95;;;;;;;;;;5096095;28;20047;-76
2023/10/08 14:27:02;;;;;;;14.90;4.72;;;;;;;;;;5094705;28;20027;-77
2023/10/08 14:29:29;;;;;;;7.25;2.47;;;;;;;;;;5097455;28;20333;-78
2023/10/08 14:31:56;;;;;;;9.18;3.08;;;;;;;;;;5097107;28;20028;-81
2023/10/08 14:45:22;;;;;;;7.07;2.15;;;;;;;;;;5095150;28;20728;-75
2023/10/08 14:47:49;;;;;;;10.40;2.70;;;;;;;;;;5092222;28;20085;-76
2023/10/08 14:50:18;;;;;;;7.38;2.00;;;;;;;;;;5092342;28;20028;-74
2023/10/08 14:52:45;;;;;;;4.28;2.00;;;;;;;;;;5092095;28;20026;-75
2023/10/08 14:55:12;;;;;;;6.15;1.88;;;;;;;;;;5092161;28;20058;-74
2023/10/08 14:57:38;;;;;;;7.65;2.47;;;;;;;;;;5091934;28;20097;-74
2023/10/08 15:00:05;;;;;;;7.05;2.20;;;;;;;;;;5092242;28;20024;-76
2023/10/08 15:02:32;;;;;;;7.38;2.40;;;;;;;;;;5092248;28;20571;-75
2023/10/08 15:05:00;;;;;;;10.25;2.90;;;;;;;;;;5092459;28;20475;-74
2023/10/08 15:07:27;;;;;;;7.00;2.63;;;;;;;;;;5091215;28;20108;-74
2023/10/08 15:09:57;;;;;;;8.38;2.35;;;;;;;;;;5092383;28;20023;-74
2023/10/08 15:12:25;;;;;;;5.78;2.63;;;;;;;;;;5094669;28;20024;-75
2023/10/08 15:14:51;;;;;;;11.00;3.17;;;;;;;;;;5095882;28;20076;-76
2023/10/08 15:17:18;;;;;;;15.88;7.07;;;;;;;;;;5076520;28;20028;-75
2023/10/08 15:19:46;;;;;;;12.75;3.80;;;;;;;;;;5091401;28;20028;-75
2023/10/08 15:22:12;;;;;;;12.60;4.10;;;;;;;;;;5091475;28;20417;-75
2023/10/08 15:24:39;;;;;;;7.60;2.92;;;;;;;;;;5091638;28;20351;-75
2023/10/08 15:27:05;;;;;;;6.07;2.50;;;;;;;;;;5091476;28;20063;-75
2023/10/08 15:29:33;;;;;;;8.35;2.10;;;;;;;;;;5091574;28;20020;-75
2023/10/08 15:31:59;;;;;;;8.93;2.10;;;;;;;;;;5091620;28;20040;-75
2023/10/08 15:34:26;;;;;;;9.63;2.65;;;;;;;;;;5092499;28;20052;-77
2023/10/08 15:36:54;;;;;;;8.13;2.90;;;;;;;;;;5093370;28;20024;-75
2023/10/08 15:39:23;;;;;;;7.88;2.33;;;;;;;;;;5093019;28;20029;-75
2023/10/08 15:41:50;;;;;;;6.15;2.50;;;;;;;;;;5089333;28;20498;-74
2023/10/08 15:44:22;;;;;;;10.60;2.55;;;;;;;;;;5086669;28;20081;-76
2023/10/08 15:46:49;;;;;;;14.38;2.90;;;;;;;;;;5089348;28;20111;-74
2023/10/08 15:49:15;;;;;;;8.15;3.20;;;;;;;;;;5084064;28;20024;-74
2023/10/08 15:51:41;;;;;;;8.40;3.30;;;;;;;;;;5057019;28;20492;-75
2023/10/08 15:54:07;;;;;;;7.38;3.30;;;;;;;;;;5093056;28;20066;-75
2023/10/08 15:56:34;;;;;;;8.20;3.00;;;;;;;;;;5095161;28;20039;-76
2023/10/08 15:59:00;;;;;;;9.77;2.70;;;;;;;;;;5086958;28;20016;-77
2023/10/08 16:01:26;;;;;;;8.43;3.15;;;;;;;;;;5094796;28;20113;-80